Time;durP1;ratioP1;P1;durP2;ratioP2;P2;SDS_P1;SDS_P2;PMS_P1;PMS_P2;Temp;Humidity;BMP_temperature;BMP_pressure;BME280_temperature;BME280_humidity;BME280_pressure;Samples;Min_cycle;Max_cycle;Signal;HPM_P1;HPM_P2
2022/10/19 00:00:10;;;;;;;1.40;1.30;;;25.70;52.50;;;;;;7716461;22;80840;-52
2022/10/19 00:03:11;;;;;;;1.58;1.30;;;25.70;52.50;;;;;;7719369;22;80700;-50
2022/10/19 00:06:11;;;;;;;4.05;2.28;;;25.70;52.50;;;;;;7715679;22;82077;-51
2022/10/19 00:09:12;;;;;;;1.33;1.20;;;25.70;52.60;;;;;;7717411;22;81343;-52
2022/10/19 00:12:12;;;;;;;1.63;1.23;;;25.70;52.60;;;;;;7689336;22;81734;-52
2022/10/19 00:15:13;;;;;;;1.58;1.48;;;25.70;53.00;;;;;;7717720;22;80243;-52
2022/10/19 00:18:13;;;;;;;1.33;1.23;;;25.70;52.80;;;;;;7714728;22;80346;-51
2022/10/19 00:21:14;;;;;;;1.30;1.20;;;25.70;52.70;;;;;;7718587;22;80423;-53
2022/10/19 00:24:14;;;;;;;1.30;1.20;;;25.70;52.70;;;;;;7689571;22;83197;-54
2022/10/19 00:27:15;;;;;;;3.88;1.02;;;25.70;52.80;;;;;;7717954;22;81385;-50
2022/10/19 00:30:15;;;;;;;1.80;1.38;;;25.70;52.80;;;;;;7685905;22;84695;-51
2022/10/19 00:33:22;;;;;;;1.17;1.00;;;25.70;52.80;;;;;;7716279;22;80559;-54
2022/10/19 00:36:22;;;;;;;1.05;1.02;;;25.70;52.90;;;;;;7717289;22;80364;-50
2022/10/19 00:39:23;;;;;;;1.30;1.20;;;25.70;52.80;;;;;;7716997;22;80642;-50
2022/10/19 00:42:23;;;;;;;1.33;1.23;;;25.70;52.80;;;;;;7715440;22;80142;-51
2022/10/19 00:45:24;;;;;;;1.23;1.10;;;25.70;52.80;;;;;;7717019;22;80526;-49
2022/10/19 00:48:25;;;;;;;1.48;1.20;;;25.70;52.90;;;;;;7716454;22;80169;-52
2022/10/19 00:51:25;;;;;;;1.27;1.17;;;25.70;52.80;;;;;;7710669;22;81414;-52
2022/10/19 00:54:26;;;;;;;1.67;1.25;;;25.70;52.70;;;;;;7717091;22;80637;-51
2022/10/19 00:57:26;;;;;;;1.30;1.10;;;25.70;52.80;;;;;;7719437;22;80831;-53
2022/10/19 01:00:27;;;;;;;1.20;1.10;;;25.70;52.90;;;;;;7715484;22;81663;-53
2022/10/19 01:03:27;;;;;;;1.38;1.10;;;25.70;52.80;;;;;;7719022;22;80294;-49
2022/10/19 01:06:28;;;;;;;1.23;1.13;;;25.70;52.80;;;;;;7716347;22;80702;-51
2022/10/19 01:09:29;;;;;;;1.40;1.30;;;25.70;52.70;;;;;;7689674;22;82195;-50
2022/10/19 01:12:29;;;;;;;1.30;1.20;;;25.70;52.80;;;;;;7715218;22;80244;-49
2022/10/19 01:15:30;;;;;;;2.45;1.33;;;25.70;52.80;;;;;;7718476;22;80676;-50
2022/10/19 01:18:30;;;;;;;1.25;1.15;;;25.70;52.80;;;;;;7714248;22;87157;-49
2022/10/19 01:21:31;;;;;;;1.00;1.00;;;25.70;52.70;;;;;;7717651;22;80480;-46
2022/10/19 01:24:31;;;;;;;1.67;1.33;;;25.70;52.70;;;;;;7682044;22;81497;-46
2022/10/19 01:27:32;;;;;;;2.78;1.20;;;25.70;52.60;;;;;;7717651;22;81411;-47
2022/10/19 01:30:32;;;;;;;1.17;1.02;;;25.70;52.70;;;;;;7716683;22;80348;-48
2022/10/19 01:33:33;;;;;;;1.38;1.33;;;25.70;52.70;;;;;;7716611;22;80886;-51
2022/10/19 01:36:33;;;;;;;1.23;1.13;;;25.70;52.70;;;;;;7715172;22;80312;-48
2022/10/19 01:39:34;;;;;;;1.40;1.30;;;25.70;52.60;;;;;;7711643;22;80914;-58
2022/10/19 01:42:35;;;;;;;2.35;1.40;;;25.70;52.60;;;;;;7715140;22;80712;-59
2022/10/19 01:45:35;;;;;;;2.13;1.40;;;25.70;52.60;;;;;;7717999;22;80321;-59
2022/10/19 01:48:36;;;;;;;1.92;1.40;;;25.70;52.80;;;;;;7715823;22;81264;-59
2022/10/19 01:51:36;;;;;;;2.03;1.40;;;25.60;52.70;;;;;;7716871;22;81311;-59
2022/10/19 01:54:37;;;;;;;1.33;1.23;;;25.70;52.90;;;;;;7717667;22;81808;-58
2022/10/19 01:57:37;;;;;;;1.65;1.20;;;25.70;52.80;;;;;;7716225;22;81016;-58
2022/10/19 02:00:37;;;;;;;3.53;1.40;;;25.60;52.70;;;;;;7718198;22;80177;-58
2022/10/19 02:03:38;;;;;;;1.77;1.50;;;25.60;52.60;;;;;;7715772;22;80488;-58
2022/10/19 02:06:38;;;;;;;2.35;1.80;;;25.60;52.60;;;;;;7716948;22;80375;-58
2022/10/19 02:09:39;;;;;;;1.60;1.50;;;25.60;52.70;;;;;;7716480;22;80615;-59
2022/10/19 02:12:39;;;;;;;1.80;1.60;;;25.60;52.80;;;;;;7718543;22;80695;-59
2022/10/19 02:15:40;;;;;;;2.40;1.58;;;25.60;52.70;;;;;;7717571;22;80577;-65
2022/10/19 02:18:40;;;;;;;1.80;1.70;;;25.60;52.70;;;;;;7718904;22;80258;-64
2022/10/19 02:21:41;;;;;;;1.85;1.50;;;25.60;52.80;;;;;;7717354;22;80525;-65
2022/10/19 02:24:41;;;;;;;1.70;1.60;;;25.60;52.80;;;;;;7718883;22;80319;-66
2022/10/19 02:27:42;;;;;;;3.42;1.60;;;25.60;52.80;;;;;;7716752;22;82030;-65
2022/10/19 02:30:43;;;;;;;1.60;1.50;;;25.60;52.80;;;;;;7718381;22;80209;-67
2022/10/19 02:33:43;;;;;;;2.63;1.70;;;25.60;52.80;;;;;;7716428;22;81563;-63
2022/10/19 02:36:44;;;;;;;1.40;1.30;;;25.60;52.70;;;;;;7715585;22;80357;-64
2022/10/19 02:39:44;;;;;;;2.35;2.08;;;25.60;52.80;;;;;;7719060;22;81285;-62
2022/10/19 02:42:45;;;;;;;1.73;1.50;;;25.60;52.70;;;;;;7713009;22;80560;-63
2022/10/19 02:45:45;;;;;;;2.75;1.98;;;25.60;52.80;;;;;;7719288;22;82486;-62
2022/10/19 02:48:46;;;;;;;2.78;1.80;;;25.60;52.70;;;;;;7714546;22;80633;-64
2022/10/19 02:51:46;;;;;;;1.98;1.60;;;25.60;52.60;;;;;;7717002;22;81055;-62
2022/10/19 02:54:47;;;;;;;2.25;1.80;;;25.60;52.60;;;;;;7719226;22;81012;-62
2022/10/19 02:57:47;;;;;;;2.17;1.63;;;25.60;52.70;;;;;;7718855;22;81423;-62
2022/10/19 03:00:48;;;;;;;1.90;1.70;;;25.60;52.60;;;;;;7691828;22;81124;-63
2022/10/19 03:03:49;;;;;;;2.28;1.70;;;25.60;52.70;;;;;;7718640;22;80252;-64
2022/10/19 03:06:49;;;;;;;2.45;1.60;;;25.60;52.70;;;;;;7716447;22;80479;-64
2022/10/19 03:09:50;;;;;;;4.50;2.00;;;25.60;52.70;;;;;;7717696;22;80158;-60
2022/10/19 03:12:50;;;;;;;2.60;1.80;;;25.60;52.70;;;;;;7716380;22;80916;-60
2022/10/19 03:15:51;;;;;;;1.90;1.80;;;25.60;52.70;;;;;;7716884;22;80247;-59
2022/10/19 03:18:51;;;;;;;1.80;1.70;;;25.60;52.80;;;;;;7717456;22;80240;-59
2022/10/19 03:21:52;;;;;;;1.70;1.60;;;25.60;52.90;;;;;;7720301;22;80480;-60
2022/10/19 03:24:53;;;;;;;2.22;1.85;;;25.60;52.90;;;;;;7716442;22;80333;-61
2022/10/19 03:27:53;;;;;;;2.17;1.60;;;25.60;52.80;;;;;;7718765;22;80102;-60
2022/10/19 03:30:54;;;;;;;2.75;1.75;;;25.60;52.90;;;;;;7716177;22;80384;-60
2022/10/19 03:33:54;;;;;;;2.20;1.77;;;25.60;52.90;;;;;;7720360;22;81316;-59
2022/10/19 03:36:55;;;;;;;1.88;1.75;;;25.60;52.90;;;;;;7716356;22;80606;-60
2022/10/19 03:39:56;;;;;;;1.60;1.50;;;25.60;53.10;;;;;;7718162;22;80452;-61
2022/10/19 03:42:56;;;;;;;2.15;1.85;;;25.60;53.20;;;;;;7718031;22;80078;-55
2022/10/19 03:45:57;;;;;;;2.15;1.98;;;25.50;53.10;;;;;;7718530;22;81690;-58
2022/10/19 03:48:57;;;;;;;2.47;1.92;;;25.60;53.30;;;;;;7716176;22;82112;-60
2022/10/19 03:51:58;;;;;;;2.13;1.90;;;25.50;53.00;;;;;;7713149;22;81101;-60
2022/10/19 03:54:58;;;;;;;2.75;2.10;;;25.60;53.10;;;;;;7717894;22;81073;-60
2022/10/19 03:57:59;;;;;;;2.33;2.13;;;25.60;53.20;;;;;;7717704;22;80371;-58
2022/10/19 04:00:59;;;;;;;2.50;2.17;;;25.60;53.10;;;;;;7716887;22;80870;-61
2022/10/19 04:04:00;;;;;;;3.22;2.22;;;25.60;53.30;;;;;;7716283;22;80895;-59
2022/10/19 04:07:00;;;;;;;4.13;2.08;;;25.60;53.20;;;;;;7714403;22;82423;-59
2022/10/19 04:10:01;;;;;;;2.38;2.00;;;25.60;53.60;;;;;;7716011;22;85272;-59
2022/10/19 04:13:01;;;;;;;2.42;2.22;;;25.60;53.40;;;;;;7701983;22;80493;-60
2022/10/19 04:16:02;;;;;;;3.65;2.20;;;25.60;53.30;;;;;;7712620;22;80858;-62
2022/10/19 04:19:02;;;;;;;3.35;2.05;;;25.60;53.30;;;;;;7712184;22;82168;-60
2022/10/19 04:22:03;;;;;;;2.17;1.95;;;25.60;53.30;;;;;;7714390;22;80448;-59
2022/10/19 04:25:03;;;;;;;4.13;2.10;;;25.60;53.20;;;;;;7713404;22;81864;-60
2022/10/19 04:28:04;;;;;;;2.78;2.40;;;25.60;53.30;;;;;;7715114;22;80390;-58
2022/10/19 04:31:04;;;;;;;3.38;2.63;;;25.60;53.20;;;;;;7716059;22;81912;-58
2022/10/19 04:34:05;;;;;;;5.60;2.42;;;25.60;53.40;;;;;;7718556;22;80488;-58
2022/10/19 04:37:05;;;;;;;7.05;2.80;;;25.60;53.20;;;;;;7717961;22;83131;-59
2022/10/19 04:40:06;;;;;;;2.95;2.60;;;25.60;53.20;;;;;;7713666;22;80685;-60
2022/10/19 04:43:06;;;;;;;5.68;2.85;;;25.60;53.20;;;;;;7708181;22;80468;-65
2022/10/19 04:46:07;;;;;;;6.30;3.13;;;25.60;53.10;;;;;;7719488;22;81078;-63
2022/10/19 04:49:07;;;;;;;3.83;2.70;;;25.60;53.20;;;;;;7718427;22;80218;-62
2022/10/19 04:52:08;;;;;;;7.50;3.20;;;25.60;53.40;;;;;;7716837;22;80729;-64
2022/10/19 04:55:08;;;;;;;5.70;3.65;;;25.70;53.50;;;;;;7717459;22;80212;-62
2022/10/19 04:58:09;;;;;;;8.45;3.67;;;25.60;53.60;;;;;;7716742;22;80449;-60
2022/10/19 05:01:10;;;;;;;7.55;4.40;;;25.60;53.80;;;;;;7713884;22;80293;-62
2022/10/19 05:04:10;;;;;;;5.55;3.83;;;25.60;53.80;;;;;;7717592;22;80299;-63
2022/10/19 05:07:11;;;;;;;10.98;5.28;;;25.60;53.70;;;;;;7717587;22;80602;-65
2022/10/19 05:10:11;;;;;;;9.02;4.65;;;25.60;53.90;;;;;;7712449;22;80867;-61
2022/10/19 05:13:12;;;;;;;10.57;5.25;;;25.70;53.90;;;;;;7717869;22;81023;-61
2022/10/19 05:16:12;;;;;;;10.23;6.10;;;25.70;54.20;;;;;;7706020;22;80300;-62
2022/10/19 05:19:13;;;;;;;7.35;5.22;;;25.70;54.70;;;;;;7699465;22;81119;-64
2022/10/19 05:22:13;;;;;;;11.05;5.45;;;25.70;54.80;;;;;;7709733;22;80543;-62
2022/10/19 05:25:14;;;;;;;11.60;5.30;;;25.70;54.60;;;;;;7714191;22;80495;-62
2022/10/19 05:28:14;;;;;;;20.60;6.22;;;25.70;55.20;;;;;;7715906;22;80712;-62
2022/10/19 05:31:15;;;;;;;11.30;5.63;;;25.70;55.50;;;;;;7715826;22;82295;-70
2022/10/19 05:34:15;;;;;;;11.07;5.43;;;25.70;55.50;;;;;;7718311;22;82307;-65
2022/10/19 05:37:16;;;;;;;8.05;4.72;;;25.70;55.20;;;;;;7714982;22;80747;-64
2022/10/19 05:40:16;;;;;;;9.20;5.60;;;25.70;55.30;;;;;;7715200;22;80442;-65
2022/10/19 05:43:17;;;;;;;7.50;5.03;;;25.70;55.20;;;;;;7717737;22;81541;-61
2022/10/19 05:46:18;;;;;;;7.32;4.55;;;25.70;55.20;;;;;;7716599;22;80244;-60
2022/10/19 05:49:18;;;;;;;9.98;4.72;;;25.70;55.10;;;;;;7718136;22;80282;-64
2022/10/19 05:52:18;;;;;;;11.98;5.20;;;25.70;54.70;;;;;;7717667;22;80513;-62
2022/10/19 05:55:19;;;;;;;21.20;4.78;;;25.60;54.50;;;;;;7707434;22;81946;-59
2022/10/19 05:58:20;;;;;;;7.68;5.18;;;25.60;54.30;;;;;;7713256;22;80779;-60
2022/10/19 06:01:20;;;;;;;11.35;4.72;;;25.50;53.90;;;;;;7716328;22;82030;-63
2022/10/19 06:04:21;;;;;;;6.10;4.85;;;25.50;54.00;;;;;;7715012;22;81670;-64
2022/10/19 06:07:21;;;;;;;6.88;5.05;;;25.50;54.00;;;;;;7712470;22;80652;-63
2022/10/19 06:10:22;;;;;;;7.28;5.22;;;25.50;53.60;;;;;;7705462;22;80296;-64
2022/10/19 06:13:23;;;;;;;7.38;5.47;;;25.50;53.40;;;;;;7707149;22;80709;-63
2022/10/19 06:16:24;;;;;;;7.13;5.40;;;25.50;53.00;;;;;;7713199;22;81003;-64
2022/10/19 06:19:24;;;;;;;9.90;5.03;;;25.40;52.60;;;;;;7711669;22;80608;-63
2022/10/19 06:22:24;;;;;;;7.32;5.53;;;25.40;52.80;;;;;;7712431;22;81527;-64
2022/10/19 06:25:25;;;;;;;6.00;4.93;;;25.30;52.30;;;;;;7711386;22;80472;-64
2022/10/19 06:28:25;;;;;;;13.73;5.00;;;25.30;52.10;;;;;;7717338;22;80587;-64
2022/10/19 06:31:26;;;;;;;8.40;4.88;;;25.30;52.10;;;;;;7720265;22;80649;-62
2022/10/19 06:34:27;;;;;;;7.93;5.53;;;25.20;51.80;;;;;;7717977;22;80284;-64
2022/10/19 06:37:27;;;;;;;9.00;5.88;;;25.20;51.70;;;;;;7717566;22;80554;-64
2022/10/19 06:40:28;;;;;;;11.25;6.20;;;25.20;51.50;;;;;;7718058;22;80833;-62
2022/10/19 06:43:28;;;;;;;8.63;5.82;;;25.20;51.20;;;;;;7718229;22;80698;-65
2022/10/19 06:46:29;;;;;;;8.18;5.70;;;25.10;50.90;;;;;;7717525;22;80728;-62
2022/10/19 06:49:29;;;;;;;7.15;5.20;;;25.00;50.70;;;;;;7715585;22;81536;-64
2022/10/19 06:52:30;;;;;;;5.97;5.30;;;25.00;50.70;;;;;;7718138;22;80226;-64
2022/10/19 06:55:30;;;;;;;10.38;6.05;;;24.90;50.60;;;;;;7715548;22;81607;-66
2022/10/19 06:58:31;;;;;;;8.15;5.45;;;24.80;50.40;;;;;;7716647;22;80765;-65
2022/10/19 07:01:31;;;;;;;6.07;4.68;;;24.80;50.80;;;;;;7718525;22;80710;-65
2022/10/19 07:04:32;;;;;;;6.35;4.78;;;24.80;50.70;;;;;;7716956;22;80599;-63
2022/10/19 07:07:32;;;;;;;7.70;4.90;;;24.90;51.30;;;;;;7714672;22;80593;-63
2022/10/19 07:10:33;;;;;;;11.00;4.82;;;24.90;50.70;;;;;;7715658;22;80436;-63
2022/10/19 07:13:33;;;;;;;9.10;5.25;;;24.90;50.50;;;;;;7715282;22;80151;-64
2022/10/19 07:16:34;;;;;;;7.05;4.80;;;24.90;50.10;;;;;;7717107;22;80859;-64
2022/10/19 07:19:34;;;;;;;15.02;5.70;;;24.90;50.30;;;;;;7715621;22;80504;-63
2022/10/19 07:22:35;;;;;;;10.35;6.05;;;24.90;50.10;;;;;;7715869;22;80498;-64
2022/10/19 07:25:36;;;;;;;8.73;6.25;;;24.90;50.00;;;;;;7692604;22;80948;-63
2022/10/19 07:28:36;;;;;;;12.63;5.60;;;24.70;50.00;;;;;;7690845;22;80300;-54
2022/10/19 07:31:37;;;;;;;8.27;4.50;;;24.70;50.20;;;;;;7716359;22;80995;-51
2022/10/19 07:34:37;;;;;;;7.70;4.68;;;24.80;50.30;;;;;;7714503;22;80774;-50
2022/10/19 07:37:41;;;;;;;10.88;5.00;;;24.80;50.10;;;;;;7716274;22;80544;-51
2022/10/19 07:40:41;;;;;;;11.10;5.45;;;24.80;50.20;;;;;;7719791;22;80237;-51
2022/10/19 07:43:42;;;;;;;11.88;5.72;;;24.70;49.80;;;;;;7688621;22;83196;-48
2022/10/19 07:46:42;;;;;;;8.70;5.40;;;24.50;49.80;;;;;;7716517;22;80665;-49
2022/10/19 07:49:43;;;;;;;11.35;7.15;;;24.50;50.00;;;;;;7719991;22;80581;-52
2022/10/19 07:52:43;;;;;;;8.88;6.05;;;24.40;49.90;;;;;;7716926;22;80827;-49
2022/10/19 07:55:44;;;;;;;9.80;6.05;;;24.40;50.10;;;;;;7716573;22;81901;-48
2022/10/19 07:58:45;;;;;;;13.85;6.10;;;24.30;50.00;;;;;;7714979;22;80319;-48
2022/10/19 08:01:47;;;;;;;10.23;6.18;;;24.30;49.90;;;;;;7717800;22;80754;-52
2022/10/19 08:04:48;;;;;;;11.73;6.55;;;24.30;49.90;;;;;;7719047;22;80136;-50
2022/10/19 08:07:48;;;;;;;10.35;5.72;;;24.20;50.00;;;;;;7718306;22;80931;-50
2022/10/19 08:10:49;;;;;;;11.95;6.45;;;24.30;50.00;;;;;;7716530;22;80739;-49
2022/10/19 08:13:49;;;;;;;8.02;5.20;;;24.30;49.90;;;;;;7689616;22;80346;-50
2022/10/19 08:16:50;;;;;;;11.18;6.38;;;24.30;49.80;;;;;;7719214;22;80048;-52
2022/10/19 08:19:50;;;;;;;9.13;6.03;;;24.40;49.60;;;;;;7715006;22;80900;-50
2022/10/19 08:22:51;;;;;;;11.93;6.22;;;24.40;49.20;;;;;;7717898;22;80346;-48
2022/10/19 08:25:51;;;;;;;10.13;5.80;;;24.40;48.80;;;;;;7717077;22;81090;-49
2022/10/19 08:28:52;;;;;;;11.18;5.32;;;24.40;48.50;;;;;;7719673;22;80791;-51
2022/10/19 08:31:53;;;;;;;16.58;5.57;;;24.30;48.20;;;;;;7717051;22;80198;-52
2022/10/19 08:34:53;;;;;;;9.68;5.10;;;24.30;47.70;;;;;;7688081;22;81150;-52
2022/10/19 08:37:54;;;;;;;9.15;5.20;;;24.30;48.00;;;;;;7717303;22;80179;-51
2022/10/19 08:40:54;;;;;;;8.32;4.78;;;24.20;48.10;;;;;;7716438;22;81446;-55
2022/10/19 08:43:55;;;;;;;9.25;4.90;;;24.10;47.90;;;;;;7691820;22;80331;-53
2022/10/19 08:46:55;;;;;;;8.25;4.72;;;24.20;47.90;;;;;;7705998;22;81846;-60
2022/10/19 08:49:56;;;;;;;11.70;4.40;;;24.10;48.00;;;;;;7706970;22;81050;-54
2022/10/19 08:52:56;;;;;;;6.22;3.80;;;24.10;48.10;;;;;;7708808;22;80998;-54
2022/10/19 08:55:57;;;;;;;8.07;4.53;;;24.20;48.20;;;;;;7684720;22;81029;-57
2022/10/19 08:58:58;;;;;;;7.65;4.43;;;24.30;48.20;;;;;;7666044;22;81794;-56
2022/10/19 09:01:58;;;;;;;29.73;14.20;;;24.30;48.20;;;;;;7690945;22;81789;-53
2022/10/19 09:04:59;;;;;;;35.00;18.40;;;24.40;49.10;;;;;;7691232;22;83700;-56
2022/10/19 09:07:59;;;;;;;36.05;18.92;;;24.50;48.30;;;;;;7691125;22;82991;-61
2022/10/19 09:11:00;;;;;;;35.65;20.25;;;24.50;47.80;;;;;;7691356;22;83326;-55
2022/10/19 09:14:00;;;;;;;40.08;21.25;;;24.60;47.40;;;;;;7689364;22;83452;-54
2022/10/19 09:17:01;;;;;;;38.15;18.30;;;24.60;47.40;;;;;;7693677;22;84229;-55
2022/10/19 09:20:01;;;;;;;39.33;20.00;;;24.60;47.40;;;;;;7691140;22;83150;-54
2022/10/19 09:23:02;;;;;;;35.55;19.45;;;24.60;47.20;;;;;;7688918;22;84841;-57
2022/10/19 09:26:03;;;;;;;41.78;18.95;;;24.50;47.10;;;;;;7688256;22;83960;-54
2022/10/19 09:29:03;;;;;;;34.53;17.58;;;24.60;47.00;;;;;;7689665;22;84520;-56
2022/10/19 09:32:04;;;;;;;31.75;17.25;;;24.50;46.60;;;;;;7690405;22;83513;-57
2022/10/19 09:35:04;;;;;;;33.33;15.45;;;24.50;46.60;;;;;;7696876;22;84035;-55
2022/10/19 09:38:05;;;;;;;29.50;15.57;;;24.50;46.60;;;;;;7692054;22;83696;-69
2022/10/19 09:41:06;;;;;;;32.35;15.23;;;24.60;46.70;;;;;;7690827;22;84533;-69
2022/10/19 09:44:06;;;;;;;25.80;14.50;;;24.50;46.40;;;;;;7689400;22;84085;-70
2022/10/19 09:47:07;;;;;;;22.60;11.48;;;24.60;46.40;;;;;;7688307;22;84399;-68
2022/10/19 09:50:07;;;;;;;33.35;13.05;;;24.60;46.30;;;;;;7693991;22;84574;-67
2022/10/19 09:53:08;;;;;;;23.92;10.50;;;24.60;46.10;;;;;;7694659;22;83640;-70
2022/10/19 09:56:08;;;;;;;19.48;10.38;;;24.60;45.80;;;;;;7690896;22;83394;-51
2022/10/19 09:59:09;;;;;;;21.85;8.98;;;24.60;45.70;;;;;;7691731;22;84162;-52
2022/10/19 10:02:09;;;;;;;15.80;8.52;;;24.50;45.70;;;;;;7666545;22;86030;-52
2022/10/19 10:05:10;;;;;;;14.52;7.57;;;24.50;45.50;;;;;;7696939;22;80444;-48
2022/10/19 10:08:10;;;;;;;12.30;6.40;;;24.60;45.30;;;;;;7693119;22;80286;-53
2022/10/19 10:11:11;;;;;;;14.20;6.78;;;24.60;45.40;;;;;;7696901;22;81080;-51
2022/10/19 10:14:11;;;;;;;10.82;6.05;;;24.60;45.10;;;;;;7694867;22;81139;-52
2022/10/19 10:17:12;;;;;;;11.32;5.78;;;24.60;44.90;;;;;;7700833;22;81585;-50
2022/10/19 10:20:12;;;;;;;8.18;4.90;;;24.70;44.70;;;;;;7696083;22;82123;-52
2022/10/19 10:23:13;;;;;;;11.30;4.75;;;24.80;44.50;;;;;;7699174;22;81268;-53
2022/10/19 10:26:18;;;;;;;10.85;5.03;;;24.90;44.60;;;;;;7693096;22;81667;-53
2022/10/19 10:29:19;;;;;;;10.02;3.72;;;24.90;44.30;;;;;;7693792;22;81005;-53
2022/10/19 10:32:19;;;;;;;8.27;3.90;;;24.90;44.20;;;;;;7695909;22;80957;-49
2022/10/19 10:35:20;;;;;;;9.70;3.63;;;24.90;43.90;;;;;;7695460;22;81193;-52
2022/10/19 10:38:20;;;;;;;7.47;3.28;;;24.80;43.80;;;;;;7693924;22;81645;-49
2022/10/19 10:41:22;;;;;;;9.45;3.97;;;24.70;44.00;;;;;;7694710;22;82229;-52
2022/10/19 10:44:22;;;;;;;6.85;3.17;;;24.70;43.80;;;;;;7699297;22;82097;-52
2022/10/19 10:47:24;;;;;;;9.43;3.80;;;24.70;43.60;;;;;;7697365;22;80771;-49
2022/10/19 10:50:25;;;;;;;7.05;3.00;;;24.70;43.80;;;;;;7692961;22;81562;-55
2022/10/19 10:53:25;;;;;;;8.88;3.30;;;24.60;43.80;;;;;;7693006;22;82169;-55
2022/10/19 10:56:26;;;;;;;6.13;3.00;;;24.60;43.90;;;;;;7702719;22;82556;-54
2022/10/19 10:59:27;;;;;;;6.95;3.17;;;24.60;43.70;;;;;;7686767;22;80237;-52
2022/10/19 11:02:27;;;;;;;7.55;3.10;;;24.60;43.70;;;;;;7708981;22;81738;-56
2022/10/19 11:05:28;;;;;;;10.82;3.00;;;24.60;43.80;;;;;;7709649;22;80363;-56
2022/10/19 11:08:28;;;;;;;5.28;2.75;;;24.60;43.70;;;;;;7714737;22;80266;-56
2022/10/19 11:11:29;;;;;;;6.30;2.90;;;24.60;43.50;;;;;;7712773;22;81009;-54
2022/10/19 11:14:29;;;;;;;7.93;2.35;;;24.60;43.80;;;;;;7717259;22;80115;-55
2022/10/19 11:17:30;;;;;;;5.05;2.95;;;24.60;43.70;;;;;;7714223;22;80383;-56
2022/10/19 11:20:30;;;;;;;6.53;2.28;;;24.60;44.20;;;;;;7718065;22;81698;-58
2022/10/19 11:23:31;;;;;;;7.45;2.65;;;24.70;43.60;;;;;;7719148;22;80141;-55
2022/10/19 11:26:31;;;;;;;5.60;2.50;;;24.70;44.00;;;;;;7718451;22;81888;-68
2022/10/19 11:29:32;;;;;;;4.50;2.40;;;24.70;44.10;;;;;;7715622;22;80346;-69
2022/10/19 11:32:33;;;;;;;7.65;2.10;;;24.70;44.00;;;;;;7717614;22;81743;-68
2022/10/19 11:35:33;;;;;;;4.70;2.40;;;24.70;43.70;;;;;;7718520;22;80270;-70
2022/10/19 11:38:34;;;;;;;4.63;2.47;;;24.70;43.50;;;;;;7719199;22;80481;-71
2022/10/19 11:41:34;;;;;;;5.45;2.47;;;24.70;43.20;;;;;;7717953;22;80476;-66
2022/10/19 11:44:35;;;;;;;4.68;2.13;;;24.60;42.40;;;;;;7713284;22;81527;-56
2022/10/19 11:47:35;;;;;;;6.78;2.25;;;24.60;42.80;;;;;;7711130;22;81591;-56
2022/10/19 11:50:36;;;;;;;5.32;2.47;;;24.60;42.40;;;;;;7716478;22;87516;-57
2022/10/19 11:53:36;;;;;;;4.45;2.25;;;24.60;42.30;;;;;;7717583;22;80427;-56
2022/10/19 11:56:37;;;;;;;5.30;2.13;;;24.60;42.30;;;;;;7716801;22;80304;-55
2022/10/19 11:59:37;;;;;;;6.97;2.20;;;24.50;42.40;;;;;;7717502;22;81426;-56
2022/10/19 12:02:38;;;;;;;3.92;1.85;;;24.50;42.20;;;;;;7716544;22;81578;-56
2022/10/19 12:05:38;;;;;;;3.83;1.88;;;24.50;42.40;;;;;;7717015;22;79977;-55
2022/10/19 12:08:39;;;;;;;4.68;2.40;;;24.50;42.20;;;;;;7711276;22;80549;-56
2022/10/19 12:11:39;;;;;;;4.63;2.15;;;24.40;42.10;;;;;;7712733;22;80251;-54
2022/10/19 12:14:40;;;;;;;6.18;2.38;;;24.40;42.00;;;;;;7717248;22;80831;-56
2022/10/19 12:17:40;;;;;;;3.63;2.13;;;24.40;41.70;;;;;;7715914;22;80182;-56
2022/10/19 12:20:41;;;;;;;6.53;2.10;;;24.40;41.70;;;;;;7716630;22;81618;-56
2022/10/19 12:23:41;;;;;;;5.03;1.95;;;24.40;41.80;;;;;;7717382;22;80446;-64
2022/10/19 12:26:42;;;;;;;3.47;1.98;;;24.40;41.50;;;;;;7690147;22;81339;-64
2022/10/19 12:29:42;;;;;;;5.25;1.95;;;24.40;41.20;;;;;;7717138;22;80005;-63
2022/10/19 12:32:43;;;;;;;2.72;1.98;;;24.50;41.40;;;;;;7688380;22;83556;-67
2022/10/19 12:35:44;;;;;;;3.78;2.08;;;24.40;41.60;;;;;;7712642;22;80767;-67
2022/10/19 12:38:44;;;;;;;5.43;2.10;;;24.40;41.60;;;;;;7715783;22;82080;-65
2022/10/19 12:41:45;;;;;;;3.75;1.95;;;24.40;41.50;;;;;;7716428;22;81851;-67
2022/10/19 12:44:45;;;;;;;4.82;2.08;;;24.40;41.70;;;;;;7718987;22;80450;-65
2022/10/19 12:47:46;;;;;;;4.50;2.15;;;24.40;41.70;;;;;;7716134;22;80404;-65
2022/10/19 12:50:46;;;;;;;4.50;2.42;;;24.40;41.30;;;;;;7716988;22;81175;-65
2022/10/19 12:53:47;;;;;;;4.15;1.95;;;24.30;41.60;;;;;;7718022;22;81350;-67
2022/10/19 12:56:48;;;;;;;5.07;2.33;;;24.40;41.80;;;;;;7716814;22;81491;-63
2022/10/19 12:59:48;;;;;;;3.75;2.22;;;24.30;41.90;;;;;;7719060;22;81996;-59
2022/10/19 13:02:49;;;;;;;3.92;2.28;;;24.30;41.90;;;;;;7716691;22;80236;-56
2022/10/19 13:05:49;;;;;;;6.47;2.58;;;24.30;41.70;;;;;;7715467;22;80136;-54
2022/10/19 13:08:50;;;;;;;12.38;5.68;;;24.30;41.80;;;;;;7718028;22;80689;-54
2022/10/19 13:11:50;;;;;;;14.50;5.57;;;24.30;42.00;;;;;;7717360;22;80029;-56
2022/10/19 13:14:51;;;;;;;15.60;7.35;;;24.30;42.20;;;;;;7716999;22;80320;-55
2022/10/19 13:17:51;;;;;;;14.68;6.78;;;24.30;42.40;;;;;;7716112;22;81101;-56
2022/10/19 13:20:52;;;;;;;13.10;6.75;;;24.20;42.00;;;;;;7717773;22;81145;-55
2022/10/19 13:23:52;;;;;;;13.75;6.95;;;24.20;42.20;;;;;;7717719;22;81184;-64
2022/10/19 13:26:53;;;;;;;19.42;8.73;;;24.20;42.10;;;;;;7717544;22;80800;-54
2022/10/19 13:29:53;;;;;;;18.08;8.73;;;24.20;42.10;;;;;;7715743;22;80344;-54
2022/10/19 13:32:54;;;;;;;18.40;8.82;;;24.20;42.40;;;;;;7716683;22;80407;-54
2022/10/19 13:35:54;;;;;;;21.50;11.32;;;24.20;42.30;;;;;;7716989;22;80233;-54
2022/10/19 13:38:55;;;;;;;24.70;13.02;;;24.20;42.40;;;;;;7713466;22;82680;-51
2022/10/19 13:41:56;;;;;;;33.58;15.00;;;24.20;42.40;;;;;;7708887;22;82889;-54
2022/10/19 13:44:56;;;;;;;39.75;19.95;;;24.20;42.40;;;;;;7713016;22;83459;-54
2022/10/19 13:47:57;;;;;;;48.20;21.85;;;24.20;42.50;;;;;;7712977;22;83070;-53
2022/10/19 13:50:57;;;;;;;54.13;25.77;;;24.20;42.50;;;;;;7700181;22;82560;-64
2022/10/19 13:53:58;;;;;;;52.75;25.35;;;24.20;42.50;;;;;;7707549;22;83898;-65
2022/10/19 13:56:58;;;;;;;57.80;26.90;;;24.20;42.60;;;;;;7705707;22;83253;-68
2022/10/19 14:00:00;;;;;;;56.08;25.33;;;24.20;42.40;;;;;;7716474;22;83162;-66
2022/10/19 14:03:01;;;;;;;45.58;22.33;;;24.20;42.80;;;;;;7715064;22;84517;-63
2022/10/19 14:06:02;;;;;;;36.70;18.63;;;24.20;42.70;;;;;;7712554;22;83264;-69
2022/10/19 14:09:03;;;;;;;39.05;19.65;;;24.20;42.60;;;;;;7712413;22;83387;-66
2022/10/19 14:12:05;;;;;;;33.28;16.73;;;24.20;42.80;;;;;;7714628;22;83490;-64
2022/10/19 14:15:06;;;;;;;34.92;15.30;;;24.20;42.90;;;;;;7715075;22;83443;-62
2022/10/19 14:18:06;;;;;;;43.42;14.55;;;24.20;42.80;;;;;;7714382;22;83987;-65
2022/10/19 14:21:07;;;;;;;27.27;12.77;;;24.20;43.10;;;;;;7707433;22;83059;-63
2022/10/19 14:24:07;;;;;;;28.77;13.00;;;24.20;43.50;;;;;;7711623;22;82886;-67
2022/10/19 14:27:08;;;;;;;22.75;11.43;;;24.20;43.00;;;;;;7688664;22;84953;-66
2022/10/19 14:30:08;;;;;;;23.67;11.18;;;24.30;43.00;;;;;;7714372;22;83231;-54
2022/10/19 14:33:09;;;;;;;25.27;11.35;;;24.30;43.10;;;;;;7715317;22;83625;-53
2022/10/19 14:36:09;;;;;;;28.45;10.82;;;24.30;43.30;;;;;;7714262;22;83090;-53
2022/10/19 14:39:10;;;;;;;16.63;9.57;;;24.30;43.30;;;;;;7712038;22;82822;-53
2022/10/19 14:42:10;;;;;;;16.52;9.65;;;24.30;43.40;;;;;;7717035;22;82904;-49
2022/10/19 14:45:11;;;;;;;18.48;9.40;;;24.30;43.30;;;;;;7712238;22;80743;-50
2022/10/19 14:48:11;;;;;;;17.00;9.07;;;24.30;43.30;;;;;;7715513;22;80209;-65
2022/10/19 14:51:12;;;;;;;19.92;7.82;;;24.40;43.50;;;;;;7720571;22;80112;-67
2022/10/19 14:54:12;;;;;;;18.33;7.60;;;24.40;43.40;;;;;;7718348;22;80400;-66
2022/10/19 14:57:14;;;;;;;11.20;6.22;;;24.40;43.60;;;;;;7721067;22;80154;-66
2022/10/19 15:00:14;;;;;;;13.13;6.35;;;24.30;43.40;;;;;;7719693;22;80157;-65
2022/10/19 15:03:15;;;;;;;15.07;6.03;;;24.30;43.60;;;;;;7694485;22;83362;-65
2022/10/19 15:06:15;;;;;;;12.65;5.07;;;24.30;43.40;;;;;;7718759;22;80218;-67
2022/10/19 15:09:16;;;;;;;10.23;5.13;;;24.40;43.50;;;;;;7716678;22;80866;-68
2022/10/19 15:12:16;;;;;;;11.70;4.28;;;24.30;43.30;;;;;;7719230;22;80314;-66
2022/10/19 15:15:17;;;;;;;8.23;4.47;;;24.30;43.50;;;;;;7706788;22;81861;-65
2022/10/19 15:18:17;;;;;;;11.02;4.63;;;24.30;43.30;;;;;;7715908;22;81038;-62
2022/10/19 15:21:18;;;;;;;8.48;4.50;;;24.30;43.40;;;;;;7712210;22;80311;-64
2022/10/19 15:24:19;;;;;;;10.60;5.47;;;24.30;43.30;;;;;;7714326;22;80589;-69
2022/10/19 15:27:19;;;;;;;13.80;6.75;;;24.30;43.20;;;;;;7692635;22;80070;-65
2022/10/19 15:30:20;;;;;;;15.15;7.13;;;24.20;42.90;;;;;;7718370;22;80415;-67
2022/10/19 15:33:21;;;;;;;17.83;7.63;;;24.10;43.00;;;;;;7719906;22;81111;-67